Kilkenny, Ireland

4:21 PM IST on August 25, 2016 (GMT +0100)
Hillcrest, CITYLIMITS | | Change Station

Elev 305 ft 52.67 °N, 7.28 °W | Updated 24 seconds ago

Mostly Cloudy
Mostly Cloudy
71.4 °F
Feels Like 77 °F
N
5.1
Wind Variable Wind from SSE
Gusts 9.8 mph

Today
High -- | Low -- °F
--% Chance of Precip.
Yesterday
High -- | Low -- °F
Precip. -- in
Pressure 29.98 in
Visibility 6.2 miles
Clouds Few 2200 ft
Mostly Cloudy 25000 ft
Heat Index 77 °F
Dew Point 51 °F
Humidity 49%
Rainfall 0.00 in
Snow Depth Not available.
6:28 AM 8:32 PM
Last Quarter, 44% visible
METAR EIME 251500Z 08008KT 9999 FEW022 BKN250 20/10 Q1015
Pressure 29.98 in
Visibility 6.2 miles
Clouds Few 2200 ft
Mostly Cloudy 25000 ft
Heat Index 77 °F
Dew Point 51 °F
Humidity 49%
Rainfall 0.00 in
Snow Depth Not available.
6:28 AM 8:32 PM
Last Quarter, 44% visible
METAR EIME 251500Z 08008KT 9999 FEW022 BKN250 20/10 Q1015

10-Day Weather Forecast

×

Almanac

Astronomy

Aug. 25, 2016 Rise Set
Actual Time
Civil Twilight
Nautical Twilight
Astronomical Twilight
Moon
Length of Visible Light
Length of Day
Tomorrow will be .
, % of the Moon is Illuminated

Today's Extremes

Country Highs Country Lows

Community

WunderPhotos

Upload Photos

1,934,859 photos uploaded!

WunderBlog® & News

Nearby

Air Quality

  Air Quality AQ Index Pollutant
Not available.

Snow Depth

Station Depth Elevation

Earthquake Activity

City Distance Mag. Time & Date
Minimum magnitude displayed is 2.5.

Coastal Water Temperatures

Place Temperature

Stations

Nearby Weather Stations

Station Location Temp. Windchill Dew Point Humidity Wind Precip. Elev Updated Type